createdAt,value
2023-05-14T00:00:04.345Z,0
2023-05-14T00:05:04.437Z,0
2023-05-14T00:10:04.428Z,0
2023-05-14T00:15:04.388Z,0
2023-05-14T00:20:04.503Z,0
2023-05-14T00:25:04.465Z,0
2023-05-14T00:30:04.371Z,0
2023-05-14T00:35:04.474Z,0
2023-05-14T00:40:04.436Z,0
2023-05-14T00:45:04.384Z,0
2023-05-14T00:50:04.382Z,0
2023-05-14T00:55:04.467Z,0
2023-05-14T01:00:04.476Z,0
2023-05-14T01:05:05.686Z,0
2023-05-14T01:10:04.402Z,0
2023-05-14T01:15:04.413Z,0
2023-05-14T01:20:04.463Z,0
2023-05-14T01:25:04.454Z,0
2023-05-14T01:30:04.407Z,0
2023-05-14T01:35:04.448Z,0
2023-05-14T01:40:04.433Z,0
2023-05-14T01:45:04.407Z,0
2023-05-14T01:50:04.464Z,0
2023-05-14T01:55:04.396Z,0
2023-05-14T02:00:04.394Z,0
2023-05-14T02:05:07.438Z,0
2023-05-14T02:10:04.419Z,0
2023-05-14T02:15:04.432Z,0
2023-05-14T02:20:04.529Z,0
2023-05-14T02:25:04.415Z,0
2023-05-14T02:30:04.394Z,0
2023-05-14T02:35:04.440Z,0
2023-05-14T02:40:04.460Z,0
2023-05-14T02:45:04.410Z,0
2023-05-14T02:50:04.449Z,0
2023-05-14T02:55:04.476Z,0
2023-05-14T03:00:04.412Z,0
2023-05-14T03:05:04.430Z,0
2023-05-14T03:10:04.464Z,0
2023-05-14T03:15:04.383Z,0
2023-05-14T03:20:04.442Z,0
2023-05-14T03:25:04.476Z,0
2023-05-14T03:30:04.410Z,0
2023-05-14T03:35:04.463Z,0
2023-05-14T03:40:04.643Z,0
2023-05-14T03:45:04.506Z,0
2023-05-14T03:50:04.579Z,0
2023-05-14T03:55:04.686Z,0
2023-05-14T04:00:04.486Z,0
2023-05-14T04:05:04.579Z,0
2023-05-14T04:10:05.507Z,265
2023-05-14T04:15:04.458Z,265
2023-05-14T04:20:04.523Z,267
2023-05-14T04:25:04.476Z,273
2023-05-14T04:30:04.410Z,269
2023-05-14T04:35:04.427Z,270
2023-05-14T04:40:04.467Z,270
2023-05-14T04:45:04.433Z,275
2023-05-14T04:50:04.496Z,274
2023-05-14T04:55:04.490Z,275
2023-05-14T05:00:04.426Z,273
2023-05-14T05:05:04.685Z,274
2023-05-14T05:10:04.655Z,276
2023-05-14T05:15:04.421Z,277
2023-05-14T05:20:04.562Z,276
2023-05-14T05:25:04.599Z,278
2023-05-14T05:30:04.603Z,281
2023-05-14T05:35:05.929Z,280
2023-05-14T05:40:04.586Z,281
2023-05-14T05:45:04.432Z,282
2023-05-14T05:50:04.458Z,283
2023-05-14T05:55:04.480Z,286
2023-05-14T06:00:04.413Z,286
2023-05-14T06:05:04.506Z,286
2023-05-14T06:10:04.518Z,289
2023-05-14T06:15:04.430Z,290
2023-05-14T06:20:04.467Z,299
2023-05-14T06:25:04.472Z,313
2023-05-14T06:30:04.445Z,310
2023-05-14T06:35:04.513Z,306
2023-05-14T06:40:04.504Z,307
2023-05-14T06:45:04.457Z,302
2023-05-14T06:50:04.504Z,298
2023-05-14T06:55:04.508Z,298
2023-05-14T07:00:04.447Z,300
2023-05-14T07:05:04.477Z,322
2023-05-14T07:10:04.626Z,323
2023-05-14T07:15:04.734Z,312
2023-05-14T07:20:04.569Z,325
2023-05-14T07:25:04.520Z,333
2023-05-14T07:30:04.582Z,337
2023-05-14T07:35:04.833Z,341
2023-05-14T07:40:04.493Z,351
2023-05-14T07:45:04.444Z,348
2023-05-14T07:50:04.521Z,337
2023-05-14T07:55:04.537Z,338
2023-05-14T08:00:04.475Z,352
2023-05-14T08:05:04.514Z,343
2023-05-14T08:10:04.492Z,352
2023-05-14T08:15:05.024Z,356
2023-05-14T08:20:04.492Z,365
2023-05-14T08:25:04.523Z,373
2023-05-14T08:30:04.493Z,389
2023-05-14T08:35:04.517Z,392
2023-05-14T08:40:04.570Z,458
2023-05-14T08:45:04.527Z,442
2023-05-14T08:50:04.743Z,430
2023-05-14T08:55:04.484Z,530
2023-05-14T09:00:04.508Z,458
2023-05-14T09:05:04.635Z,522
2023-05-14T09:10:04.574Z,395
2023-05-14T09:15:04.472Z,1165
2023-05-14T09:20:04.624Z,340
2023-05-14T09:25:04.503Z,305
2023-05-14T09:30:04.567Z,310
2023-05-14T09:35:04.484Z,322
2023-05-14T09:40:04.503Z,350
2023-05-14T09:45:04.507Z,464
2023-05-14T09:50:04.546Z,1464
2023-05-14T09:55:04.513Z,524
2023-05-14T10:00:04.659Z,479
2023-05-14T10:05:04.571Z,637
2023-05-14T10:10:04.498Z,473
2023-05-14T10:15:04.473Z,390
2023-05-14T10:20:04.560Z,1557
2023-05-14T10:25:04.720Z,453
2023-05-14T10:30:04.461Z,1351
2023-05-14T10:35:04.959Z,520
2023-05-14T10:40:04.894Z,364
2023-05-14T10:45:04.683Z,395
2023-05-14T10:50:04.586Z,443
2023-05-14T10:55:04.622Z,352
2023-05-14T11:00:04.483Z,376
2023-05-14T11:05:04.572Z,347
2023-05-14T11:10:04.528Z,325
2023-05-14T11:15:04.541Z,329
2023-05-14T11:20:04.535Z,341
2023-05-14T11:25:04.534Z,344
2023-05-14T11:30:04.506Z,337
2023-05-14T11:35:04.535Z,336
2023-05-14T11:40:04.573Z,394
2023-05-14T11:45:04.566Z,409
2023-05-14T11:50:08.656Z,377
2023-05-14T11:55:04.716Z,385
2023-05-14T12:00:04.800Z,379
2023-05-14T12:05:04.764Z,396
2023-05-14T12:10:04.766Z,406
2023-05-14T12:15:04.604Z,387
2023-05-14T12:20:04.566Z,367
2023-05-14T12:25:04.521Z,356
2023-05-14T12:35:04.554Z,310
2023-05-14T12:40:04.544Z,314
2023-05-14T12:45:04.523Z,317
2023-05-14T12:50:04.600Z,324
2023-05-14T12:55:04.657Z,338
2023-05-14T13:00:04.515Z,332
2023-05-14T13:05:04.592Z,343
2023-05-14T13:10:04.595Z,350
2023-05-14T13:15:04.510Z,324
2023-05-14T13:20:05.749Z,345
2023-05-14T13:25:04.861Z,345
2023-05-14T13:30:06.973Z,356
2023-05-14T13:35:05.949Z,349
2023-05-14T13:40:06.016Z,340
2023-05-14T13:45:04.556Z,324
2023-05-14T13:50:04.639Z,316
2023-05-14T13:55:04.547Z,311
2023-05-14T14:00:04.525Z,307
2023-05-14T14:05:04.599Z,315
2023-05-14T14:10:04.570Z,327
2023-05-14T14:15:04.515Z,326
2023-05-14T14:20:04.591Z,322
2023-05-14T14:25:04.563Z,332
2023-05-14T14:30:04.612Z,340
2023-05-14T14:35:04.685Z,347
2023-05-14T14:40:04.586Z,354
2023-05-14T14:45:04.610Z,320
2023-05-14T14:50:04.803Z,300
2023-05-14T14:55:05.843Z,300
2023-05-14T15:00:05.572Z,301
2023-05-14T15:05:05.621Z,300
2023-05-14T15:10:05.652Z,302
2023-05-14T15:15:05.791Z,299
2023-05-14T15:20:05.626Z,300
2023-05-14T15:25:05.573Z,300
2023-05-14T15:30:05.579Z,305
2023-05-14T15:35:05.597Z,308
2023-05-14T15:40:05.794Z,307
2023-05-14T15:45:05.572Z,301
2023-05-14T15:50:05.621Z,303
2023-05-14T15:55:05.634Z,303
2023-05-14T16:00:05.584Z,295
2023-05-14T16:05:05.615Z,285
2023-05-14T16:10:05.692Z,290
2023-05-14T16:15:05.754Z,294
2023-05-14T16:20:05.592Z,295
2023-05-14T16:25:05.770Z,294
2023-05-14T16:30:05.842Z,293
2023-05-14T16:35:05.607Z,280
2023-05-14T16:40:05.615Z,274
2023-05-14T16:45:05.582Z,274
2023-05-14T16:50:05.574Z,278
2023-05-14T16:55:05.603Z,287
2023-05-14T17:00:05.583Z,291
2023-05-14T17:05:05.785Z,290
2023-05-14T17:10:05.616Z,280
2023-05-14T17:15:06.624Z,276
2023-05-14T17:20:05.630Z,272
2023-05-14T17:25:05.631Z,273
2023-05-14T17:30:05.621Z,273
2023-05-14T17:35:05.640Z,271
2023-05-14T17:40:05.681Z,273
2023-05-14T17:45:05.640Z,271
2023-05-14T17:50:05.670Z,271
2023-05-14T17:55:05.615Z,270
2023-05-14T18:00:05.565Z,269
2023-05-14T18:05:05.612Z,267
2023-05-14T18:10:05.592Z,268
2023-05-14T18:15:06.110Z,267
2023-05-14T18:20:05.653Z,267
2023-05-14T18:25:05.651Z,265
2023-05-14T18:30:05.632Z,265
2023-05-14T18:35:08.698Z,0
2023-05-14T18:40:05.690Z,0
2023-05-14T18:45:05.600Z,0
2023-05-14T18:50:05.636Z,0
2023-05-14T18:55:05.693Z,0
2023-05-14T19:00:05.773Z,0
2023-05-14T19:05:05.745Z,0
2023-05-14T19:10:05.657Z,0
2023-05-14T19:15:05.631Z,0
2023-05-14T19:20:05.670Z,0
2023-05-14T19:25:07.554Z,0
2023-05-14T19:30:05.672Z,0
2023-05-14T19:35:05.655Z,0
2023-05-14T19:40:05.701Z,0
2023-05-14T19:45:05.691Z,0
2023-05-14T19:50:05.679Z,0
2023-05-14T19:55:05.702Z,0
2023-05-14T20:00:05.681Z,0
2023-05-14T20:05:05.617Z,0
2023-05-14T20:10:05.672Z,0
2023-05-14T20:15:05.644Z,0
2023-05-14T20:20:05.704Z,0
2023-05-14T20:25:05.690Z,0
2023-05-14T20:30:05.632Z,0
2023-05-14T20:35:05.674Z,0
2023-05-14T20:40:05.700Z,0
2023-05-14T20:45:05.685Z,0
2023-05-14T20:50:05.731Z,0
2023-05-14T20:55:05.667Z,0
2023-05-14T21:00:05.702Z,0
2023-05-14T21:05:06.024Z,0
2023-05-14T21:10:05.654Z,0
2023-05-14T21:15:05.644Z,0
2023-05-14T21:20:05.791Z,0
2023-05-14T21:25:05.712Z,0
2023-05-14T21:30:05.661Z,0
2023-05-14T21:35:05.655Z,0
2023-05-14T21:40:05.704Z,0
2023-05-14T21:45:05.630Z,0
2023-05-14T21:50:05.659Z,0
2023-05-14T21:55:05.730Z,0
2023-05-14T22:00:05.640Z,0
2023-05-14T22:05:05.642Z,0
2023-05-14T22:10:05.682Z,0
2023-05-14T22:15:05.672Z,0
2023-05-14T22:20:05.739Z,0
2023-05-14T22:25:05.689Z,0
2023-05-14T22:30:05.704Z,0
2023-05-14T22:35:05.645Z,0
2023-05-14T22:40:05.697Z,0
2023-05-14T22:45:05.666Z,0
2023-05-14T22:50:05.663Z,0
2023-05-14T22:55:05.775Z,0
2023-05-14T23:00:05.662Z,0
2023-05-14T23:05:05.663Z,0
2023-05-14T23:10:05.704Z,0
2023-05-14T23:15:05.623Z,0
2023-05-14T23:20:05.729Z,0
2023-05-14T23:25:05.725Z,0
2023-05-14T23:30:05.629Z,0
2023-05-14T23:35:05.678Z,0
2023-05-14T23:40:05.757Z,0
2023-05-14T23:45:05.631Z,0
2023-05-14T23:50:05.739Z,0
2023-05-14T23:55:05.711Z,0
